EmailTwitter


Surface observations / Quebec / CYUL (71627)

Regions: Quebec | Canada | USA | Europe | France | UK | Elsewhere
Station
Display
Info & Location for CYUL (71627) | Help decoding METAR

Weather Conditions observed on 2017/04/26 at 01:30 UTC at MONTREAL INTL A, QB (CYUL)

Sky conditions: overcast.

Obstruction(s) to Vision: light rain.

Temperature: 10.0 Celsius.

Dewpoint: 9.0 Celsius.

Relative Humidity: 93%

Winds: East at 13 km/h or 7 knots.

Mean Sea level Pressure: 101.87 kilopascals.

Altimeter Setting (QNH): 101.86 kilopascals or 30.08 inches of mercury.

Horizontal visibility: 10.00 statute miles or 16.00 kilometers.

Height of the Ceiling: 1524 metres ( 5000 feet ).

Coded METAR:

CYUL 260130Z 09007KT 10SM -RA FEW007 SCT012 OVC050 10/09 A3008 RMK SF2SF1SC5

SLP187=